Terminal Aerodrome Forecast
Issued by NWS Omaha/Valley, NE

Home | Current Version | Previous Version | Text Only | Print | Product List | Glossary On
Versions: 1 2 3 4 5 6 7 8 9 10 11 12 13 14 15 16 17 18 19 20 21 22 23 24 25 26 27 28 29 30 31 32 33 34 35
000
FTUS43 KOAX 312320
TAFLNK
TAF
KLNK 312320Z 0100/0124 12010KT 1 1/2SM -SN BR OVC007
      TEMPO 0101/0105 3/4SM -SN BR OVC004
     FM010500 08007KT 1 1/2SM -SN OVC004
      TEMPO 0105/0108 3/4SM -SN OVC004
     FM011100 35018G27KT 1 1/2SM -SN OVC007
     FM011300 35022G32KT 1SM -SN BLSN OVC005
     FM012000 34015G25KT 6SM -SN BLSN OVC012=

USA.gov is the U.S. government's official web portal to all federal, state and local government web resources and services.